sensor_id;sensor_type;location;lat;lon;timestamp;P1;durP1;ratioP1;P2;durP2;ratioP2
22543;SDS011;11438;52.044;8.716;2024-03-06T00:00:24;19.90;;;13.77;;
22543;SDS011;11438;52.044;8.716;2024-03-06T00:02:50;22.52;;;13.93;;
22543;SDS011;11438;52.044;8.716;2024-03-06T00:05:16;18.73;;;13.75;;
22543;SDS011;11438;52.044;8.716;2024-03-06T00:07:41;21.75;;;14.07;;
22543;SDS011;11438;52.044;8.716;2024-03-06T00:10:07;20.48;;;13.90;;
22543;SDS011;11438;52.044;8.716;2024-03-06T00:12:33;20.40;;;13.27;;
22543;SDS011;11438;52.044;8.716;2024-03-06T00:14:58;17.10;;;12.20;;
22543;SDS011;11438;52.044;8.716;2024-03-06T00:17:24;24.40;;;14.20;;
22543;SDS011;11438;52.044;8.716;2024-03-06T00:19:50;19.63;;;12.85;;
22543;SDS011;11438;52.044;8.716;2024-03-06T00:22:16;21.73;;;14.25;;
22543;SDS011;11438;52.044;8.716;2024-03-06T00:24:42;20.60;;;13.45;;
22543;SDS011;11438;52.044;8.716;2024-03-06T00:27:07;21.67;;;13.15;;
22543;SDS011;11438;52.044;8.716;2024-03-06T00:29:33;21.60;;;13.18;;
22543;SDS011;11438;52.044;8.716;2024-03-06T00:32:01;19.63;;;12.77;;
22543;SDS011;11438;52.044;8.716;2024-03-06T00:34:26;19.25;;;13.20;;
22543;SDS011;11438;52.044;8.716;2024-03-06T00:36:52;19.10;;;13.30;;
22543;SDS011;11438;52.044;8.716;2024-03-06T00:39:19;21.42;;;13.52;;
22543;SDS011;11438;52.044;8.716;2024-03-06T00:41:45;20.58;;;12.90;;
22543;SDS011;11438;52.044;8.716;2024-03-06T00:44:10;19.15;;;13.00;;
22543;SDS011;11438;52.044;8.716;2024-03-06T00:46:36;19.15;;;13.05;;
22543;SDS011;11438;52.044;8.716;2024-03-06T00:49:01;19.27;;;12.45;;
22543;SDS011;11438;52.044;8.716;2024-03-06T00:51:27;21.20;;;13.32;;
22543;SDS011;11438;52.044;8.716;2024-03-06T00:53:52;19.45;;;13.32;;
22543;SDS011;11438;52.044;8.716;2024-03-06T00:56:18;18.42;;;13.07;;
22543;SDS011;11438;52.044;8.716;2024-03-06T00:58:43;19.40;;;12.95;;
22543;SDS011;11438;52.044;8.716;2024-03-06T01:01:09;19.38;;;13.25;;
22543;SDS011;11438;52.044;8.716;2024-03-06T01:03:34;17.80;;;12.77;;
22543;SDS011;11438;52.044;8.716;2024-03-06T01:06:02;20.48;;;13.25;;
22543;SDS011;11438;52.044;8.716;2024-03-06T01:08:27;18.65;;;12.90;;
22543;SDS011;11438;52.044;8.716;2024-03-06T01:10:53;20.10;;;12.90;;
22543;SDS011;11438;52.044;8.716;2024-03-06T01:13:21;20.85;;;13.50;;
22543;SDS011;11438;52.044;8.716;2024-03-06T01:15:48;19.52;;;13.98;;
22543;SDS011;11438;52.044;8.716;2024-03-06T01:18:13;21.15;;;13.48;;
22543;SDS011;11438;52.044;8.716;2024-03-06T01:20:38;22.55;;;14.02;;
22543;SDS011;11438;52.044;8.716;2024-03-06T01:23:05;20.15;;;13.60;;
22543;SDS011;11438;52.044;8.716;2024-03-06T01:25:31;25.35;;;14.60;;
22543;SDS011;11438;52.044;8.716;2024-03-06T01:27:57;22.33;;;14.90;;
22543;SDS011;11438;52.044;8.716;2024-03-06T01:30:22;20.50;;;13.57;;
22543;SDS011;11438;52.044;8.716;2024-03-06T01:32:48;21.45;;;15.02;;
22543;SDS011;11438;52.044;8.716;2024-03-06T01:35:13;20.77;;;13.88;;
22543;SDS011;11438;52.044;8.716;2024-03-06T01:37:39;19.58;;;13.65;;
22543;SDS011;11438;52.044;8.716;2024-03-06T01:40:04;25.15;;;15.45;;
22543;SDS011;11438;52.044;8.716;2024-03-06T01:42:30;24.33;;;15.70;;
22543;SDS011;11438;52.044;8.716;2024-03-06T01:44:56;21.48;;;13.93;;
22543;SDS011;11438;52.044;8.716;2024-03-06T01:47:21;20.52;;;14.02;;
22543;SDS011;11438;52.044;8.716;2024-03-06T01:49:47;24.20;;;14.02;;
22543;SDS011;11438;52.044;8.716;2024-03-06T01:52:14;23.25;;;14.98;;
22543;SDS011;11438;52.044;8.716;2024-03-06T01:54:41;23.00;;;15.30;;
22543;SDS011;11438;52.044;8.716;2024-03-06T01:57:08;19.20;;;13.45;;
22543;SDS011;11438;52.044;8.716;2024-03-06T01:59:34;33.20;;;19.13;;
22543;SDS011;11438;52.044;8.716;2024-03-06T02:02:00;25.02;;;16.90;;
22543;SDS011;11438;52.044;8.716;2024-03-06T02:04:29;22.63;;;14.68;;
22543;SDS011;11438;52.044;8.716;2024-03-06T02:06:55;24.60;;;15.20;;
22543;SDS011;11438;52.044;8.716;2024-03-06T02:09:21;25.30;;;16.52;;
22543;SDS011;11438;52.044;8.716;2024-03-06T02:11:48;21.75;;;14.32;;
22543;SDS011;11438;52.044;8.716;2024-03-06T02:14:15;22.30;;;14.85;;
22543;SDS011;11438;52.044;8.716;2024-03-06T02:16:40;22.80;;;15.25;;
22543;SDS011;11438;52.044;8.716;2024-03-06T02:19:07;25.98;;;15.50;;
22543;SDS011;11438;52.044;8.716;2024-03-06T02:21:33;25.02;;;15.65;;
22543;SDS011;11438;52.044;8.716;2024-03-06T02:23:59;23.80;;;15.55;;
22543;SDS011;11438;52.044;8.716;2024-03-06T02:26:24;23.65;;;15.25;;
22543;SDS011;11438;52.044;8.716;2024-03-06T02:28:50;21.25;;;14.65;;
22543;SDS011;11438;52.044;8.716;2024-03-06T02:31:17;25.65;;;16.33;;
22543;SDS011;11438;52.044;8.716;2024-03-06T02:33:43;28.98;;;16.60;;
22543;SDS011;11438;52.044;8.716;2024-03-06T02:36:09;25.33;;;15.07;;
22543;SDS011;11438;52.044;8.716;2024-03-06T02:38:39;23.98;;;15.10;;
22543;SDS011;11438;52.044;8.716;2024-03-06T02:41:05;23.55;;;16.02;;
22543;SDS011;11438;52.044;8.716;2024-03-06T02:43:32;23.83;;;16.20;;
22543;SDS011;11438;52.044;8.716;2024-03-06T02:45:58;27.13;;;15.93;;
22543;SDS011;11438;52.044;8.716;2024-03-06T02:48:24;24.38;;;15.48;;
22543;SDS011;11438;52.044;8.716;2024-03-06T02:50:49;23.42;;;15.05;;
22543;SDS011;11438;52.044;8.716;2024-03-06T02:53:15;23.45;;;15.25;;
22543;SDS011;11438;52.044;8.716;2024-03-06T02:55:40;25.27;;;15.48;;
22543;SDS011;11438;52.044;8.716;2024-03-06T02:58:06;22.63;;;15.02;;
22543;SDS011;11438;52.044;8.716;2024-03-06T03:00:31;25.02;;;16.15;;
22543;SDS011;11438;52.044;8.716;2024-03-06T03:02:57;23.48;;;14.85;;
22543;SDS011;11438;52.044;8.716;2024-03-06T03:05:23;23.55;;;15.80;;
22543;SDS011;11438;52.044;8.716;2024-03-06T03:07:49;25.65;;;16.08;;
22543;SDS011;11438;52.044;8.716;2024-03-06T03:10:14;27.00;;;15.95;;
22543;SDS011;11438;52.044;8.716;2024-03-06T03:12:40;24.65;;;15.90;;
22543;SDS011;11438;52.044;8.716;2024-03-06T03:15:06;23.70;;;15.90;;
22543;SDS011;11438;52.044;8.716;2024-03-06T03:17:32;22.23;;;14.63;;
22543;SDS011;11438;52.044;8.716;2024-03-06T03:19:58;24.95;;;16.20;;
22543;SDS011;11438;52.044;8.716;2024-03-06T03:22:24;24.92;;;15.43;;
22543;SDS011;11438;52.044;8.716;2024-03-06T03:24:50;25.38;;;16.10;;
22543;SDS011;11438;52.044;8.716;2024-03-06T03:27:15;23.55;;;14.95;;
22543;SDS011;11438;52.044;8.716;2024-03-06T03:29:41;28.83;;;17.23;;
22543;SDS011;11438;52.044;8.716;2024-03-06T03:32:06;27.25;;;16.60;;
22543;SDS011;11438;52.044;8.716;2024-03-06T03:34:35;24.90;;;15.95;;
22543;SDS011;11438;52.044;8.716;2024-03-06T03:37:00;24.33;;;16.15;;
22543;SDS011;11438;52.044;8.716;2024-03-06T03:39:26;29.17;;;17.15;;
22543;SDS011;11438;52.044;8.716;2024-03-06T03:41:52;25.10;;;15.05;;
22543;SDS011;11438;52.044;8.716;2024-03-06T03:44:18;25.02;;;16.17;;
22543;SDS011;11438;52.044;8.716;2024-03-06T03:46:44;27.67;;;17.48;;
22543;SDS011;11438;52.044;8.716;2024-03-06T03:49:10;27.33;;;15.98;;
22543;SDS011;11438;52.044;8.716;2024-03-06T03:51:37;24.85;;;15.82;;
22543;SDS011;11438;52.044;8.716;2024-03-06T03:54:03;26.33;;;16.52;;
22543;SDS011;11438;52.044;8.716;2024-03-06T03:56:29;27.20;;;17.08;;
22543;SDS011;11438;52.044;8.716;2024-03-06T03:58:58;25.25;;;15.38;;
22543;SDS011;11438;52.044;8.716;2024-03-06T04:01:24;26.15;;;15.77;;
22543;SDS011;11438;52.044;8.716;2024-03-06T04:03:49;24.80;;;16.00;;
22543;SDS011;11438;52.044;8.716;2024-03-06T04:06:15;22.95;;;15.38;;
22543;SDS011;11438;52.044;8.716;2024-03-06T04:08:41;24.58;;;15.52;;
22543;SDS011;11438;52.044;8.716;2024-03-06T04:11:06;22.60;;;15.77;;
22543;SDS011;11438;52.044;8.716;2024-03-06T04:13:35;20.33;;;14.25;;
22543;SDS011;11438;52.044;8.716;2024-03-06T04:16:01;23.33;;;14.77;;
22543;SDS011;11438;52.044;8.716;2024-03-06T04:18:27;23.85;;;14.75;;
22543;SDS011;11438;52.044;8.716;2024-03-06T04:20:54;22.90;;;14.65;;
22543;SDS011;11438;52.044;8.716;2024-03-06T04:23:19;25.23;;;15.63;;
22543;SDS011;11438;52.044;8.716;2024-03-06T04:25:45;27.10;;;15.55;;
22543;SDS011;11438;52.044;8.716;2024-03-06T04:28:10;24.25;;;15.45;;
22543;SDS011;11438;52.044;8.716;2024-03-06T04:30:36;26.55;;;14.77;;
22543;SDS011;11438;52.044;8.716;2024-03-06T04:33:01;23.23;;;14.52;;
22543;SDS011;11438;52.044;8.716;2024-03-06T04:35:28;22.25;;;14.45;;
22543;SDS011;11438;52.044;8.716;2024-03-06T04:37:53;21.08;;;13.90;;
22543;SDS011;11438;52.044;8.716;2024-03-06T04:40:19;21.98;;;14.70;;
22543;SDS011;11438;52.044;8.716;2024-03-06T04:42:47;21.35;;;14.10;;
22543;SDS011;11438;52.044;8.716;2024-03-06T04:45:14;23.42;;;15.93;;
22543;SDS011;11438;52.044;8.716;2024-03-06T04:47:41;22.23;;;14.63;;
22543;SDS011;11438;52.044;8.716;2024-03-06T04:50:10;21.17;;;14.00;;
22543;SDS011;11438;52.044;8.716;2024-03-06T04:52:37;21.88;;;13.48;;
22543;SDS011;11438;52.044;8.716;2024-03-06T04:55:03;21.58;;;14.65;;
22543;SDS011;11438;52.044;8.716;2024-03-06T04:57:29;22.90;;;14.45;;
22543;SDS011;11438;52.044;8.716;2024-03-06T04:59:55;21.85;;;14.07;;
22543;SDS011;11438;52.044;8.716;2024-03-06T05:02:22;24.08;;;14.00;;
22543;SDS011;11438;52.044;8.716;2024-03-06T05:04:48;24.08;;;14.60;;
22543;SDS011;11438;52.044;8.716;2024-03-06T05:07:13;29.48;;;16.00;;
22543;SDS011;11438;52.044;8.716;2024-03-06T05:09:38;25.67;;;16.25;;
22543;SDS011;11438;52.044;8.716;2024-03-06T05:12:06;22.60;;;15.45;;
22543;SDS011;11438;52.044;8.716;2024-03-06T05:14:32;24.38;;;15.50;;
22543;SDS011;11438;52.044;8.716;2024-03-06T05:16:57;24.05;;;16.13;;
22543;SDS011;11438;52.044;8.716;2024-03-06T05:19:23;27.60;;;14.88;;
22543;SDS011;11438;52.044;8.716;2024-03-06T05:21:48;25.02;;;15.35;;
22543;SDS011;11438;52.044;8.716;2024-03-06T05:24:14;24.60;;;15.15;;
22543;SDS011;11438;52.044;8.716;2024-03-06T05:26:39;23.85;;;15.90;;
22543;SDS011;11438;52.044;8.716;2024-03-06T05:29:04;22.35;;;15.10;;
22543;SDS011;11438;52.044;8.716;2024-03-06T05:31:30;23.15;;;15.45;;
22543;SDS011;11438;52.044;8.716;2024-03-06T05:33:57;24.00;;;15.88;;
22543;SDS011;11438;52.044;8.716;2024-03-06T05:36:22;25.50;;;16.60;;
22543;SDS011;11438;52.044;8.716;2024-03-06T05:38:48;29.73;;;16.50;;
22543;SDS011;11438;52.044;8.716;2024-03-06T05:41:14;23.85;;;15.20;;
22543;SDS011;11438;52.044;8.716;2024-03-06T05:43:42;25.02;;;15.40;;
22543;SDS011;11438;52.044;8.716;2024-03-06T05:46:08;23.08;;;15.40;;
22543;SDS011;11438;52.044;8.716;2024-03-06T05:48:33;24.98;;;16.00;;
22543;SDS011;11438;52.044;8.716;2024-03-06T05:50:59;24.52;;;15.60;;
22543;SDS011;11438;52.044;8.716;2024-03-06T05:53:24;25.27;;;15.95;;
22543;SDS011;11438;52.044;8.716;2024-03-06T05:55:50;30.13;;;17.02;;
22543;SDS011;11438;52.044;8.716;2024-03-06T05:58:16;26.90;;;16.27;;
22543;SDS011;11438;52.044;8.716;2024-03-06T06:00:42;24.20;;;16.33;;
22543;SDS011;11438;52.044;8.716;2024-03-06T06:03:08;23.33;;;16.00;;
22543;SDS011;11438;52.044;8.716;2024-03-06T06:05:36;26.67;;;16.75;;
22543;SDS011;11438;52.044;8.716;2024-03-06T06:08:04;25.42;;;15.30;;
22543;SDS011;11438;52.044;8.716;2024-03-06T06:10:30;27.50;;;16.30;;
22543;SDS011;11438;52.044;8.716;2024-03-06T06:12:55;26.88;;;16.85;;
22543;SDS011;11438;52.044;8.716;2024-03-06T06:15:21;29.20;;;17.50;;
22543;SDS011;11438;52.044;8.716;2024-03-06T06:17:47;27.65;;;16.65;;
22543;SDS011;11438;52.044;8.716;2024-03-06T06:20:13;28.58;;;17.55;;
22543;SDS011;11438;52.044;8.716;2024-03-06T06:22:43;33.03;;;19.20;;
22543;SDS011;11438;52.044;8.716;2024-03-06T06:25:08;40.15;;;20.27;;
22543;SDS011;11438;52.044;8.716;2024-03-06T06:27:34;36.72;;;20.05;;
22543;SDS011;11438;52.044;8.716;2024-03-06T06:30:00;34.78;;;19.30;;
22543;SDS011;11438;52.044;8.716;2024-03-06T06:32:25;29.77;;;18.13;;
22543;SDS011;11438;52.044;8.716;2024-03-06T06:34:51;31.25;;;18.77;;
22543;SDS011;11438;52.044;8.716;2024-03-06T06:37:16;30.80;;;18.20;;
22543;SDS011;11438;52.044;8.716;2024-03-06T06:39:44;30.05;;;18.77;;
22543;SDS011;11438;52.044;8.716;2024-03-06T06:42:10;31.00;;;18.35;;
22543;SDS011;11438;52.044;8.716;2024-03-06T06:44:36;33.83;;;18.30;;
22543;SDS011;11438;52.044;8.716;2024-03-06T06:47:02;32.53;;;18.83;;
22543;SDS011;11438;52.044;8.716;2024-03-06T06:49:27;28.58;;;18.42;;
22543;SDS011;11438;52.044;8.716;2024-03-06T06:51:53;30.83;;;18.77;;
22543;SDS011;11438;52.044;8.716;2024-03-06T06:54:19;30.45;;;18.42;;
22543;SDS011;11438;52.044;8.716;2024-03-06T06:56:44;33.55;;;18.90;;
22543;SDS011;11438;52.044;8.716;2024-03-06T06:59:09;26.25;;;16.60;;
22543;SDS011;11438;52.044;8.716;2024-03-06T07:01:35;25.42;;;16.90;;
22543;SDS011;11438;52.044;8.716;2024-03-06T07:04:00;27.20;;;16.65;;
22543;SDS011;11438;52.044;8.716;2024-03-06T07:06:27;26.92;;;16.23;;
22543;SDS011;11438;52.044;8.716;2024-03-06T07:08:52;28.92;;;16.98;;
22543;SDS011;11438;52.044;8.716;2024-03-06T07:11:18;26.70;;;16.98;;
22543;SDS011;11438;52.044;8.716;2024-03-06T07:13:44;24.67;;;15.85;;
22543;SDS011;11438;52.044;8.716;2024-03-06T07:16:09;29.73;;;16.92;;
22543;SDS011;11438;52.044;8.716;2024-03-06T07:18:35;28.73;;;16.13;;
22543;SDS011;11438;52.044;8.716;2024-03-06T07:21:00;30.52;;;16.75;;
22543;SDS011;11438;52.044;8.716;2024-03-06T07:23:26;26.10;;;16.45;;
22543;SDS011;11438;52.044;8.716;2024-03-06T07:25:51;24.92;;;16.13;;
22543;SDS011;11438;52.044;8.716;2024-03-06T07:28:17;27.70;;;15.80;;
22543;SDS011;11438;52.044;8.716;2024-03-06T07:30:42;25.00;;;17.40;;
22543;SDS011;11438;52.044;8.716;2024-03-06T07:33:08;21.30;;;14.65;;
22543;SDS011;11438;52.044;8.716;2024-03-06T07:35:33;28.52;;;16.08;;
22543;SDS011;11438;52.044;8.716;2024-03-06T07:38:01;30.60;;;17.77;;
22543;SDS011;11438;52.044;8.716;2024-03-06T07:40:29;29.40;;;17.17;;
22543;SDS011;11438;52.044;8.716;2024-03-06T07:42:55;29.70;;;17.20;;
22543;SDS011;11438;52.044;8.716;2024-03-06T07:45:20;32.95;;;17.88;;
22543;SDS011;11438;52.044;8.716;2024-03-06T07:47:46;26.20;;;17.10;;
22543;SDS011;11438;52.044;8.716;2024-03-06T07:50:11;27.73;;;16.48;;
22543;SDS011;11438;52.044;8.716;2024-03-06T07:52:37;28.23;;;16.63;;
22543;SDS011;11438;52.044;8.716;2024-03-06T07:55:03;27.40;;;16.92;;
22543;SDS011;11438;52.044;8.716;2024-03-06T07:57:29;28.67;;;17.88;;
22543;SDS011;11438;52.044;8.716;2024-03-06T07:59:54;29.13;;;18.52;;
22543;SDS011;11438;52.044;8.716;2024-03-06T08:02:20;31.38;;;18.63;;
22543;SDS011;11438;52.044;8.716;2024-03-06T08:04:46;29.95;;;18.30;;
22543;SDS011;11438;52.044;8.716;2024-03-06T08:07:12;30.33;;;18.83;;
22543;SDS011;11438;52.044;8.716;2024-03-06T08:09:38;29.48;;;17.83;;
22543;SDS011;11438;52.044;8.716;2024-03-06T08:12:03;30.73;;;18.25;;
22543;SDS011;11438;52.044;8.716;2024-03-06T08:14:29;29.60;;;18.85;;
22543;SDS011;11438;52.044;8.716;2024-03-06T08:16:54;31.77;;;19.02;;
22543;SDS011;11438;52.044;8.716;2024-03-06T08:19:20;31.15;;;19.40;;
22543;SDS011;11438;52.044;8.716;2024-03-06T08:21:46;32.70;;;19.60;;
22543;SDS011;11438;52.044;8.716;2024-03-06T08:24:11;37.53;;;20.65;;
22543;SDS011;11438;52.044;8.716;2024-03-06T08:26:37;34.70;;;19.42;;
22543;SDS011;11438;52.044;8.716;2024-03-06T08:29:03;33.03;;;19.27;;
22543;SDS011;11438;52.044;8.716;2024-03-06T08:31:28;37.17;;;19.67;;
22543;SDS011;11438;52.044;8.716;2024-03-06T08:33:54;34.15;;;20.17;;
22543;SDS011;11438;52.044;8.716;2024-03-06T08:36:19;30.35;;;18.67;;
22543;SDS011;11438;52.044;8.716;2024-03-06T08:38:45;31.08;;;18.88;;
22543;SDS011;11438;52.044;8.716;2024-03-06T08:41:11;33.75;;;19.50;;
22543;SDS011;11438;52.044;8.716;2024-03-06T08:43:37;30.08;;;18.92;;
22543;SDS011;11438;52.044;8.716;2024-03-06T08:46:03;34.85;;;20.20;;
22543;SDS011;11438;52.044;8.716;2024-03-06T08:48:28;32.55;;;18.67;;
22543;SDS011;11438;52.044;8.716;2024-03-06T08:50:54;34.90;;;20.88;;
22543;SDS011;11438;52.044;8.716;2024-03-06T08:53:19;34.45;;;19.73;;
22543;SDS011;11438;52.044;8.716;2024-03-06T08:55:46;33.50;;;18.00;;
22543;SDS011;11438;52.044;8.716;2024-03-06T08:58:12;33.97;;;20.85;;
22543;SDS011;11438;52.044;8.716;2024-03-06T09:00:39;31.80;;;20.30;;
22543;SDS011;11438;52.044;8.716;2024-03-06T09:03:04;33.05;;;19.38;;
22543;SDS011;11438;52.044;8.716;2024-03-06T09:05:30;35.97;;;21.35;;
22543;SDS011;11438;52.044;8.716;2024-03-06T09:07:55;38.30;;;21.80;;
22543;SDS011;11438;52.044;8.716;2024-03-06T09:10:22;34.88;;;20.13;;
22543;SDS011;11438;52.044;8.716;2024-03-06T09:12:48;34.10;;;20.08;;
22543;SDS011;11438;52.044;8.716;2024-03-06T09:15:14;36.38;;;21.02;;
22543;SDS011;11438;52.044;8.716;2024-03-06T09:17:41;37.17;;;21.08;;
22543;SDS011;11438;52.044;8.716;2024-03-06T09:20:07;40.50;;;22.00;;
22543;SDS011;11438;52.044;8.716;2024-03-06T09:22:37;37.13;;;20.88;;
22543;SDS011;11438;52.044;8.716;2024-03-06T09:25:03;35.55;;;21.77;;
22543;SDS011;11438;52.044;8.716;2024-03-06T09:27:32;39.92;;;21.00;;
22543;SDS011;11438;52.044;8.716;2024-03-06T09:29:58;37.22;;;20.67;;
22543;SDS011;11438;52.044;8.716;2024-03-06T09:32:24;32.50;;;19.85;;
22543;SDS011;11438;52.044;8.716;2024-03-06T09:34:51;33.72;;;20.23;;
22543;SDS011;11438;52.044;8.716;2024-03-06T09:37:17;36.03;;;21.13;;
22543;SDS011;11438;52.044;8.716;2024-03-06T09:39:42;37.10;;;21.30;;
22543;SDS011;11438;52.044;8.716;2024-03-06T09:42:12;38.80;;;21.17;;
22543;SDS011;11438;52.044;8.716;2024-03-06T09:44:38;43.05;;;22.17;;
22543;SDS011;11438;52.044;8.716;2024-03-06T09:47:03;39.35;;;22.60;;
22543;SDS011;11438;52.044;8.716;2024-03-06T09:49:31;39.92;;;21.25;;
22543;SDS011;11438;52.044;8.716;2024-03-06T09:51:57;44.35;;;23.02;;
22543;SDS011;11438;52.044;8.716;2024-03-06T09:54:24;44.17;;;22.88;;
22543;SDS011;11438;52.044;8.716;2024-03-06T09:56:51;48.85;;;23.40;;
22543;SDS011;11438;52.044;8.716;2024-03-06T09:59:17;45.30;;;22.95;;
22543;SDS011;11438;52.044;8.716;2024-03-06T10:04:24;43.40;;;22.83;;
22543;SDS011;11438;52.044;8.716;2024-03-06T10:06:58;45.83;;;24.15;;
22543;SDS011;11438;52.044;8.716;2024-03-06T10:09:25;48.50;;;24.85;;
22543;SDS011;11438;52.044;8.716;2024-03-06T10:11:51;51.90;;;26.00;;
22543;SDS011;11438;52.044;8.716;2024-03-06T10:14:21;46.42;;;24.23;;
22543;SDS011;11438;52.044;8.716;2024-03-06T10:17:06;45.33;;;24.30;;
22543;SDS011;11438;52.044;8.716;2024-03-06T10:19:31;52.72;;;26.02;;
22543;SDS011;11438;52.044;8.716;2024-03-06T10:21:57;45.63;;;25.67;;
22543;SDS011;11438;52.044;8.716;2024-03-06T10:24:24;59.42;;;29.05;;
22543;SDS011;11438;52.044;8.716;2024-03-06T10:26:51;50.88;;;25.15;;
22543;SDS011;11438;52.044;8.716;2024-03-06T10:29:19;55.13;;;25.98;;
22543;SDS011;11438;52.044;8.716;2024-03-06T10:31:49;46.15;;;24.80;;
22543;SDS011;11438;52.044;8.716;2024-03-06T10:34:16;43.95;;;23.15;;
22543;SDS011;11438;52.044;8.716;2024-03-06T10:36:42;47.28;;;24.08;;
22543;SDS011;11438;52.044;8.716;2024-03-06T10:39:08;48.75;;;25.25;;
22543;SDS011;11438;52.044;8.716;2024-03-06T10:41:36;42.88;;;24.85;;
22543;SDS011;11438;52.044;8.716;2024-03-06T10:44:05;48.53;;;25.20;;
22543;SDS011;11438;52.044;8.716;2024-03-06T10:46:35;48.70;;;24.80;;
22543;SDS011;11438;52.044;8.716;2024-03-06T10:49:01;52.50;;;27.05;;
22543;SDS011;11438;52.044;8.716;2024-03-06T10:51:28;50.50;;;25.20;;
22543;SDS011;11438;52.044;8.716;2024-03-06T10:53:56;48.17;;;23.90;;
22543;SDS011;11438;52.044;8.716;2024-03-06T10:56:24;43.08;;;24.05;;
22543;SDS011;11438;52.044;8.716;2024-03-06T10:58:50;48.33;;;24.77;;
22543;SDS011;11438;52.044;8.716;2024-03-06T11:01:17;45.67;;;24.13;;
22543;SDS011;11438;52.044;8.716;2024-03-06T11:03:44;43.38;;;23.88;;
22543;SDS011;11438;52.044;8.716;2024-03-06T11:06:09;47.60;;;24.20;;
22543;SDS011;11438;52.044;8.716;2024-03-06T11:08:35;51.10;;;25.20;;
22543;SDS011;11438;52.044;8.716;2024-03-06T11:11:20;46.30;;;23.50;;
22543;SDS011;11438;52.044;8.716;2024-03-06T11:13:50;49.10;;;24.67;;
22543;SDS011;11438;52.044;8.716;2024-03-06T11:16:20;44.42;;;23.10;;
22543;SDS011;11438;52.044;8.716;2024-03-06T11:19:07;45.55;;;23.42;;
22543;SDS011;11438;52.044;8.716;2024-03-06T11:21:34;49.58;;;25.70;;
22543;SDS011;11438;52.044;8.716;2024-03-06T11:24:11;47.40;;;24.88;;
22543;SDS011;11438;52.044;8.716;2024-03-06T11:30:13;43.90;;;23.30;;
22543;SDS011;11438;52.044;8.716;2024-03-06T11:35:29;51.58;;;23.85;;
22543;SDS011;11438;52.044;8.716;2024-03-06T11:37:55;44.13;;;23.75;;
22543;SDS011;11438;52.044;8.716;2024-03-06T11:40:24;45.90;;;23.63;;
22543;SDS011;11438;52.044;8.716;2024-03-06T11:42:49;44.30;;;23.33;;
22543;SDS011;11438;52.044;8.716;2024-03-06T11:45:16;44.08;;;23.35;;
22543;SDS011;11438;52.044;8.716;2024-03-06T11:47:58;47.65;;;23.60;;
22543;SDS011;11438;52.044;8.716;2024-03-06T11:50:27;43.53;;;23.35;;
22543;SDS011;11438;52.044;8.716;2024-03-06T11:52:55;45.80;;;22.77;;
22543;SDS011;11438;52.044;8.716;2024-03-06T11:55:21;42.30;;;22.92;;
22543;SDS011;11438;52.044;8.716;2024-03-06T11:57:47;50.80;;;24.15;;
22543;SDS011;11438;52.044;8.716;2024-03-06T12:00:13;46.92;;;24.35;;
22543;SDS011;11438;52.044;8.716;2024-03-06T12:02:39;46.95;;;24.48;;
22543;SDS011;11438;52.044;8.716;2024-03-06T12:05:06;50.53;;;25.70;;
22543;SDS011;11438;52.044;8.716;2024-03-06T12:07:32;46.50;;;23.98;;
22543;SDS011;11438;52.044;8.716;2024-03-06T12:09:58;45.92;;;25.35;;
22543;SDS011;11438;52.044;8.716;2024-03-06T12:12:24;45.17;;;24.15;;
22543;SDS011;11438;52.044;8.716;2024-03-06T12:14:59;41.40;;;23.08;;
22543;SDS011;11438;52.044;8.716;2024-03-06T12:17:29;39.65;;;22.88;;
22543;SDS011;11438;52.044;8.716;2024-03-06T12:19:55;38.83;;;22.55;;
22543;SDS011;11438;52.044;8.716;2024-03-06T12:22:24;43.28;;;24.38;;
22543;SDS011;11438;52.044;8.716;2024-03-06T12:24:58;43.08;;;23.65;;
22543;SDS011;11438;52.044;8.716;2024-03-06T12:27:25;42.00;;;23.77;;
22543;SDS011;11438;52.044;8.716;2024-03-06T12:29:52;38.20;;;22.65;;
22543;SDS011;11438;52.044;8.716;2024-03-06T12:32:19;39.03;;;22.98;;
22543;SDS011;11438;52.044;8.716;2024-03-06T12:34:51;49.40;;;24.98;;
22543;SDS011;11438;52.044;8.716;2024-03-06T12:37:21;44.50;;;24.17;;
22543;SDS011;11438;52.044;8.716;2024-03-06T12:39:57;42.28;;;23.05;;
22543;SDS011;11438;52.044;8.716;2024-03-06T12:42:22;41.78;;;22.92;;
22543;SDS011;11438;52.044;8.716;2024-03-06T12:44:49;44.95;;;23.10;;
22543;SDS011;11438;52.044;8.716;2024-03-06T12:47:14;42.60;;;23.88;;
22543;SDS011;11438;52.044;8.716;2024-03-06T12:49:40;37.35;;;21.88;;
22543;SDS011;11438;52.044;8.716;2024-03-06T12:52:05;38.03;;;21.73;;
22543;SDS011;11438;52.044;8.716;2024-03-06T12:54:31;38.42;;;21.05;;
22543;SDS011;11438;52.044;8.716;2024-03-06T12:56:56;36.47;;;20.38;;
22543;SDS011;11438;52.044;8.716;2024-03-06T12:59:22;36.83;;;20.75;;
22543;SDS011;11438;52.044;8.716;2024-03-06T13:01:47;39.85;;;21.92;;
22543;SDS011;11438;52.044;8.716;2024-03-06T13:04:13;37.42;;;20.52;;
22543;SDS011;11438;52.044;8.716;2024-03-06T13:06:39;38.75;;;21.52;;
22543;SDS011;11438;52.044;8.716;2024-03-06T13:09:07;34.00;;;20.52;;
22543;SDS011;11438;52.044;8.716;2024-03-06T13:11:33;35.97;;;20.88;;
22543;SDS011;11438;52.044;8.716;2024-03-06T13:13:58;35.08;;;19.83;;
22543;SDS011;11438;52.044;8.716;2024-03-06T13:16:25;38.55;;;21.25;;
22543;SDS011;11438;52.044;8.716;2024-03-06T13:18:51;36.00;;;20.08;;
22543;SDS011;11438;52.044;8.716;2024-03-06T13:21:18;32.90;;;19.25;;
22543;SDS011;11438;52.044;8.716;2024-03-06T13:23:45;32.00;;;18.10;;
22543;SDS011;11438;52.044;8.716;2024-03-06T13:26:10;31.73;;;18.90;;
22543;SDS011;11438;52.044;8.716;2024-03-06T13:28:37;34.30;;;19.48;;
22543;SDS011;11438;52.044;8.716;2024-03-06T13:31:03;31.95;;;18.80;;
22543;SDS011;11438;52.044;8.716;2024-03-06T13:33:31;31.27;;;18.23;;
22543;SDS011;11438;52.044;8.716;2024-03-06T13:35:57;32.40;;;18.75;;
22543;SDS011;11438;52.044;8.716;2024-03-06T13:38:22;34.30;;;18.77;;
22543;SDS011;11438;52.044;8.716;2024-03-06T13:40:48;30.95;;;17.00;;
22543;SDS011;11438;52.044;8.716;2024-03-06T13:43:13;32.38;;;17.83;;
22543;SDS011;11438;52.044;8.716;2024-03-06T13:45:40;31.48;;;18.67;;
22543;SDS011;11438;52.044;8.716;2024-03-06T13:48:14;34.13;;;18.23;;
22543;SDS011;11438;52.044;8.716;2024-03-06T13:50:42;31.95;;;17.90;;
22543;SDS011;11438;52.044;8.716;2024-03-06T13:53:08;33.55;;;17.27;;
22543;SDS011;11438;52.044;8.716;2024-03-06T13:55:33;31.20;;;17.75;;
22543;SDS011;11438;52.044;8.716;2024-03-06T13:57:59;29.75;;;16.67;;
22543;SDS011;11438;52.044;8.716;2024-03-06T14:00:25;29.35;;;16.95;;
22543;SDS011;11438;52.044;8.716;2024-03-06T14:02:50;31.00;;;17.27;;
22543;SDS011;11438;52.044;8.716;2024-03-06T14:05:16;28.20;;;17.08;;
22543;SDS011;11438;52.044;8.716;2024-03-06T14:07:41;32.05;;;18.02;;
22543;SDS011;11438;52.044;8.716;2024-03-06T14:10:07;28.77;;;17.73;;
22543;SDS011;11438;52.044;8.716;2024-03-06T14:12:33;34.08;;;18.95;;
22543;SDS011;11438;52.044;8.716;2024-03-06T14:15:00;27.52;;;16.65;;
22543;SDS011;11438;52.044;8.716;2024-03-06T14:17:26;26.98;;;16.88;;
22543;SDS011;11438;52.044;8.716;2024-03-06T14:19:51;28.33;;;16.77;;
22543;SDS011;11438;52.044;8.716;2024-03-06T14:22:17;31.15;;;17.35;;
22543;SDS011;11438;52.044;8.716;2024-03-06T14:24:42;31.15;;;18.95;;